createdAt,value
2023-04-27T00:02:00.176Z,77.62
2023-04-27T00:04:28.225Z,78.06
2023-04-27T00:06:56.248Z,77.85
2023-04-27T00:09:25.731Z,78.42
2023-04-27T00:11:53.451Z,78.75
2023-04-27T00:14:21.562Z,78.98
2023-04-27T00:16:49.485Z,80.11
2023-04-27T00:19:17.330Z,79.87
2023-04-27T00:21:45.084Z,80.60
2023-04-27T00:24:12.866Z,80.48
2023-04-27T00:26:42.151Z,80.31
2023-04-27T00:29:09.851Z,79.46
2023-04-27T00:31:37.658Z,80.53
2023-04-27T00:34:05.811Z,82.61
2023-04-27T00:36:34.827Z,82.51
2023-04-27T00:39:04.247Z,82.65
2023-04-27T00:41:33.151Z,82.68
2023-04-27T00:44:03.118Z,82.91
2023-04-27T00:46:31.494Z,83.32
2023-04-27T00:48:59.871Z,83.67
2023-04-27T00:51:30.087Z,83.15
2023-04-27T00:53:58.818Z,82.46
2023-04-27T00:56:26.570Z,82.56
2023-04-27T00:58:55.911Z,82.51
2023-04-27T01:01:25.120Z,82.67
2023-04-27T01:03:53.117Z,80.22
2023-04-27T01:06:20.976Z,83.34
2023-04-27T01:08:48.736Z,82.34
2023-04-27T01:11:16.647Z,80.09
2023-04-27T01:13:44.433Z,82.34
2023-04-27T01:16:12.201Z,81.31
2023-04-27T01:18:41.641Z,80.42
2023-04-27T01:21:09.404Z,82.59
2023-04-27T01:23:38.925Z,79.27
2023-04-27T01:26:06.724Z,82.01
2023-04-27T01:28:34.572Z,79.54
2023-04-27T01:31:02.339Z,79.77
2023-04-27T01:33:30.120Z,81.37
2023-04-27T01:35:57.931Z,81.52
2023-04-27T01:38:28.533Z,82.35
2023-04-27T01:41:02.103Z,83.87
2023-04-27T01:43:30.592Z,84.33
2023-04-27T01:45:58.303Z,85.28
2023-04-27T01:48:26.049Z,84.95
2023-04-27T01:50:53.953Z,85.83
2023-04-27T01:53:21.916Z,86.17
2023-04-27T01:55:49.709Z,85.42
2023-04-27T01:58:18.817Z,86.62
2023-04-27T02:00:46.732Z,85.48
2023-04-27T02:03:14.605Z,86.29
2023-04-27T02:05:42.859Z,86.13
2023-04-27T02:08:10.725Z,85.87
2023-04-27T02:10:39.607Z,86.69
2023-04-27T02:13:07.490Z,86.35
2023-04-27T02:15:36.628Z,86.34
2023-04-27T02:18:05.039Z,86.25
2023-04-27T02:20:33.366Z,86.98
2023-04-27T02:23:02.176Z,86.63
2023-04-27T02:25:30.476Z,86.66
2023-04-27T02:27:58.243Z,85.55
2023-04-27T02:30:26.433Z,84.78
2023-04-27T02:33:00.889Z,85.39
2023-04-27T02:35:28.904Z,86.14
2023-04-27T02:37:56.712Z,86.81
2023-04-27T02:40:25.311Z,87.93
2023-04-27T02:42:53.146Z,88.13
2023-04-27T02:45:20.917Z,88.70
2023-04-27T02:47:48.968Z,88.58
2023-04-27T02:50:18.551Z,88.79
2023-04-27T02:52:46.283Z,87.96
2023-04-27T02:55:14.510Z,88.19
2023-04-27T02:57:42.429Z,89.33
2023-04-27T03:00:11.665Z,88.27
2023-04-27T03:02:39.597Z,87.71
2023-04-27T03:05:08.464Z,87.84
2023-04-27T03:07:37.599Z,87.33
2023-04-27T03:10:06.038Z,87.86
2023-04-27T03:12:33.781Z,87.68
2023-04-27T03:15:01.693Z,88.61
2023-04-27T03:17:29.685Z,87.69
2023-04-27T03:19:57.469Z,88.96
2023-04-27T03:22:25.339Z,89.07
2023-04-27T03:24:54.436Z,88.75
2023-04-27T03:27:22.227Z,86.38
2023-04-27T03:29:52.767Z,85.74
2023-04-27T03:32:20.918Z,87.88
2023-04-27T03:34:48.692Z,87.68
2023-04-27T03:37:17.249Z,87.78
2023-04-27T03:39:45.162Z,87.78
2023-04-27T03:42:14.925Z,88.64
2023-04-27T03:44:42.698Z,88.43
2023-04-27T03:47:10.513Z,89.67
2023-04-27T03:49:40.111Z,91.02
2023-04-27T03:52:08.948Z,89.94
2023-04-27T03:54:37.320Z,90.15
2023-04-27T03:57:05.322Z,90.10
2023-04-27T03:59:34.486Z,91.42
2023-04-27T04:02:03.925Z,91.33
2023-04-27T04:04:32.278Z,89.03
2023-04-27T04:07:00.196Z,87.12
2023-04-27T04:09:28.087Z,86.77
2023-04-27T04:11:56.078Z,86.12
2023-04-27T04:14:23.878Z,86.17
2023-04-27T04:16:53.999Z,85.79
2023-04-27T04:19:22.355Z,87.49
2023-04-27T04:21:50.699Z,86.76
2023-04-27T04:24:19.940Z,87.27
2023-04-27T04:26:48.633Z,88.10
2023-04-27T04:29:16.805Z,85.36
2023-04-27T04:31:45.136Z,87.04
2023-04-27T04:34:14.522Z,87.65
2023-04-27T04:36:42.541Z,88.75
2023-04-27T04:39:12.645Z,88.52
2023-04-27T04:41:40.681Z,87.03
2023-04-27T04:44:10.929Z,86.54
2023-04-27T04:46:38.889Z,88.98
2023-04-27T04:49:07.402Z,87.98
2023-04-27T04:51:36.621Z,87.35
2023-04-27T04:54:04.656Z,87.09
2023-04-27T04:56:32.436Z,85.26
2023-04-27T04:59:02.375Z,85.52
2023-04-27T05:01:32.474Z,86.82
2023-04-27T05:04:00.530Z,88.01
2023-04-27T05:06:28.346Z,87.65
2023-04-27T05:08:57.419Z,84.62
2023-04-27T05:11:25.176Z,87.60
2023-04-27T05:13:52.988Z,87.67
2023-04-27T05:16:21.142Z,86.98
2023-04-27T05:18:49.083Z,87.33
2023-04-27T05:21:17.634Z,88.47
2023-04-27T05:23:45.372Z,89.49
2023-04-27T05:26:15.190Z,88.43
2023-04-27T05:28:43.270Z,89.40
2023-04-27T05:31:11.210Z,88.18
2023-04-27T05:33:39.003Z,88.73
2023-04-27T05:36:07.180Z,87.01
2023-04-27T05:38:39.953Z,89.27
2023-04-27T05:41:07.894Z,87.56
2023-04-27T05:43:38.608Z,90.34
2023-04-27T05:46:06.677Z,88.54
2023-04-27T05:48:34.991Z,88.68
2023-04-27T05:51:03.890Z,87.06
2023-04-27T05:53:31.807Z,88.04
2023-04-27T05:56:01.003Z,87.43
2023-04-27T05:58:29.046Z,89.31
2023-04-27T06:00:58.246Z,89.21
2023-04-27T06:03:26.509Z,90.11
2023-04-27T06:05:59.071Z,89.65
2023-04-27T06:08:27.087Z,91.10
2023-04-27T06:10:55.378Z,91.99
2023-04-27T06:13:23.387Z,90.00
2023-04-27T06:15:51.254Z,91.80
2023-04-27T06:18:20.438Z,91.09
2023-04-27T06:20:48.313Z,90.98
2023-04-27T06:23:16.092Z,89.48
2023-04-27T06:25:45.364Z,91.90
2023-04-27T06:28:13.047Z,93.58
2023-04-27T06:30:40.821Z,91.62
2023-04-27T06:33:08.537Z,88.05
2023-04-27T06:35:37.684Z,87.90
2023-04-27T06:38:07.564Z,90.21
2023-04-27T06:40:37.023Z,91.26
2023-04-27T06:43:05.234Z,90.91
2023-04-27T06:45:33.016Z,91.50
2023-04-27T06:48:00.997Z,89.97
2023-04-27T06:50:29.270Z,89.21
2023-04-27T06:52:58.482Z,90.51
2023-04-27T06:55:26.267Z,88.23
2023-04-27T06:57:53.949Z,87.82
2023-04-27T07:00:22.987Z,89.70
2023-04-27T07:02:51.798Z,83.46
2023-04-27T07:05:19.857Z,83.22
2023-04-27T07:07:47.658Z,87.54
2023-04-27T07:10:16.802Z,87.70
2023-04-27T07:12:44.678Z,88.46
2023-04-27T07:15:12.478Z,85.51
2023-04-27T07:17:40.292Z,86.18
2023-04-27T07:20:09.487Z,80.67
2023-04-27T07:22:37.458Z,81.12
2023-04-27T07:25:06.024Z,76.55
2023-04-27T07:27:35.644Z,78.19
2023-04-27T07:30:03.467Z,82.52
2023-04-27T07:32:31.326Z,77.33
2023-04-27T07:34:59.573Z,76.23
2023-04-27T07:37:27.423Z,77.25
2023-04-27T07:39:55.132Z,79.25
2023-04-27T07:42:23.593Z,81.75
2023-04-27T07:44:54.083Z,77.17
2023-04-27T07:47:22.019Z,72.78
2023-04-27T07:49:49.764Z,70.39
2023-04-27T07:52:17.518Z,65.90
2023-04-27T07:54:45.494Z,71.22
2023-04-27T07:57:13.256Z,66.11
2023-04-27T07:59:41.186Z,69.00
2023-04-27T08:02:18.449Z,67.88
2023-04-27T08:04:48.042Z,60.55
2023-04-27T08:07:16.474Z,65.38
2023-04-27T08:09:44.328Z,68.06
2023-04-27T08:12:12.060Z,66.91
2023-04-27T08:14:39.801Z,64.74
2023-04-27T08:17:07.693Z,65.72
2023-04-27T08:19:36.946Z,67.67
2023-04-27T08:22:04.700Z,64.23
2023-04-27T08:24:32.474Z,64.11
2023-04-27T08:27:00.235Z,65.12
2023-04-27T08:29:29.054Z,61.08
2023-04-27T08:32:01.233Z,63.17
2023-04-27T08:34:29.364Z,58.92
2023-04-27T08:36:58.652Z,61.17
2023-04-27T08:39:26.398Z,63.10
2023-04-27T08:41:54.450Z,60.74
2023-04-27T08:44:22.322Z,63.34
2023-04-27T08:46:50.793Z,56.40
2023-04-27T08:49:19.125Z,62.19
2023-04-27T08:51:47.008Z,59.64
2023-04-27T08:54:16.236Z,55.50
2023-04-27T08:56:43.976Z,58.14
2023-04-27T08:59:17.259Z,55.41
2023-04-27T09:01:46.787Z,56.97
2023-04-27T09:04:14.967Z,57.50
2023-04-27T09:06:43.163Z,53.55
2023-04-27T09:09:11.361Z,54.49
2023-04-27T09:11:40.847Z,54.66
2023-04-27T09:14:17.689Z,58.33
2023-04-27T09:16:45.733Z,56.52
2023-04-27T09:19:13.857Z,55.41
2023-04-27T09:21:43.086Z,55.99
2023-04-27T09:24:12.313Z,55.82
2023-04-27T09:26:42.539Z,54.23
2023-04-27T09:29:10.446Z,54.67
2023-04-27T09:31:38.241Z,54.79
2023-04-27T09:34:06.274Z,52.82
2023-04-27T09:36:34.157Z,54.45
2023-04-27T09:39:04.607Z,54.17
2023-04-27T09:41:33.308Z,52.84
2023-04-27T09:44:03.346Z,54.81
2023-04-27T09:46:34.509Z,57.33
2023-04-27T09:49:05.539Z,54.78
2023-04-27T09:51:34.843Z,53.66
2023-04-27T09:54:05.111Z,54.88
2023-04-27T09:56:43.394Z,55.22
2023-04-27T09:59:32.354Z,52.90
2023-04-27T10:02:09.985Z,53.23
2023-04-27T10:05:03.969Z,52.08
2023-04-27T10:07:33.298Z,51.70
2023-04-27T10:10:04.269Z,52.09
2023-04-27T10:12:36.221Z,52.77
2023-04-27T10:15:15.348Z,51.19
2023-04-27T10:17:49.635Z,50.90
2023-04-27T10:20:17.747Z,54.10
2023-04-27T10:22:47.731Z,51.02
2023-04-27T10:25:18.834Z,51.66
2023-04-27T10:27:51.913Z,49.95
2023-04-27T10:30:22.255Z,47.84
2023-04-27T10:32:54.149Z,50.75
2023-04-27T10:35:23.148Z,50.76
2023-04-27T10:37:52.198Z,50.62
2023-04-27T10:40:19.925Z,48.71
2023-04-27T10:42:49.516Z,50.29
2023-04-27T10:45:31.430Z,48.44
2023-04-27T10:48:01.584Z,46.67
2023-04-27T10:50:30.114Z,46.69
2023-04-27T10:53:02.539Z,46.14
2023-04-27T10:55:31.430Z,47.71
2023-04-27T10:58:00.229Z,45.34
2023-04-27T11:00:31.542Z,46.84
2023-04-27T11:03:12.354Z,47.27
2023-04-27T11:05:40.218Z,47.19
2023-04-27T11:08:09.070Z,46.24
2023-04-27T11:10:41.149Z,47.72
2023-04-27T11:13:11.335Z,50.42
2023-04-27T11:15:51.709Z,47.67
2023-04-27T11:18:21.611Z,46.00
2023-04-27T11:20:52.341Z,45.34
2023-04-27T11:23:27.351Z,45.42
2023-04-27T11:25:55.855Z,44.95
2023-04-27T11:28:24.330Z,43.50
2023-04-27T11:31:04.407Z,44.61
2023-04-27T11:33:32.552Z,44.20
2023-04-27T11:36:01.093Z,49.10
2023-04-27T11:38:34.688Z,47.41
2023-04-27T11:41:06.121Z,44.49
2023-04-27T11:43:37.671Z,46.06
2023-04-27T11:46:08.208Z,43.16
2023-04-27T11:48:37.552Z,43.50
2023-04-27T11:51:06.017Z,45.83
2023-04-27T11:53:36.512Z,42.76
2023-04-27T11:56:06.236Z,41.76
2023-04-27T11:58:35.223Z,43.19
2023-04-27T12:01:03.939Z,44.13
2023-04-27T12:03:33.339Z,42.53
2023-04-27T12:06:16.194Z,41.95
2023-04-27T12:08:49.283Z,43.64
2023-04-27T12:11:17.068Z,40.23
2023-04-27T12:13:44.888Z,42.43
2023-04-27T12:16:13.375Z,42.31
2023-04-27T12:18:42.575Z,42.68
2023-04-27T12:21:10.420Z,43.58
2023-04-27T12:23:38.179Z,42.37
2023-04-27T12:26:06.217Z,41.46
2023-04-27T12:28:33.975Z,41.05
2023-04-27T12:31:04.239Z,41.65
2023-04-27T12:33:32.219Z,41.24
2023-04-27T12:36:01.327Z,43.11
2023-04-27T12:38:29.282Z,43.11
2023-04-27T12:40:57.142Z,40.08
2023-04-27T12:43:24.879Z,40.62
2023-04-27T12:45:52.723Z,39.52
2023-04-27T12:48:20.734Z,41.12
2023-04-27T12:50:48.559Z,39.33
2023-04-27T12:53:17.684Z,41.09
2023-04-27T12:55:46.923Z,41.01
2023-04-27T12:58:14.718Z,40.45
2023-04-27T13:00:42.788Z,41.26
2023-04-27T13:03:10.748Z,41.32
2023-04-27T13:05:38.547Z,39.72
2023-04-27T13:08:06.595Z,40.08
2023-04-27T13:10:36.552Z,40.43
2023-04-27T13:13:04.624Z,39.38
2023-04-27T13:15:32.394Z,38.96
2023-04-27T13:18:01.785Z,40.00
2023-04-27T13:20:29.602Z,39.78
2023-04-27T13:22:57.386Z,37.11
2023-04-27T13:25:25.098Z,36.27
2023-04-27T13:27:54.252Z,35.93
2023-04-27T13:30:22.194Z,35.55
2023-04-27T13:32:49.943Z,34.93
2023-04-27T13:35:17.780Z,32.86
2023-04-27T13:37:45.687Z,33.83
2023-04-27T13:40:13.852Z,33.93
2023-04-27T13:42:41.703Z,34.81
2023-04-27T13:45:11.676Z,35.62
2023-04-27T13:47:40.538Z,35.42
2023-04-27T13:50:10.073Z,35.83
2023-04-27T13:52:39.163Z,35.94
2023-04-27T13:55:09.188Z,36.06
2023-04-27T13:57:37.258Z,35.87
2023-04-27T14:00:07.877Z,36.14
2023-04-27T14:02:37.586Z,36.86
2023-04-27T14:05:06.446Z,36.27
2023-04-27T14:07:35.632Z,35.51
2023-04-27T14:10:03.826Z,35.89
2023-04-27T14:12:31.980Z,36.61
2023-04-27T14:14:59.731Z,37.40
2023-04-27T14:17:27.651Z,37.60
2023-04-27T14:19:56.708Z,36.77
2023-04-27T14:22:24.553Z,37.50
2023-04-27T14:24:52.366Z,37.72
2023-04-27T14:27:20.413Z,38.67
2023-04-27T14:29:48.121Z,38.12
2023-04-27T14:32:16.057Z,39.56
2023-04-27T14:34:43.841Z,38.28
2023-04-27T14:37:13.004Z,39.26
2023-04-27T14:39:42.285Z,39.25
2023-04-27T14:42:11.514Z,40.21
2023-04-27T14:44:39.173Z,42.47
2023-04-27T14:47:07.038Z,40.26
2023-04-27T14:49:34.665Z,40.68
2023-04-27T14:52:04.712Z,39.82
2023-04-27T14:54:33.909Z,41.31
2023-04-27T14:57:02.036Z,41.47
2023-04-27T14:59:30.052Z,41.80
2023-04-27T15:01:57.821Z,41.27
2023-04-27T15:04:25.676Z,40.67
2023-04-27T15:06:54.918Z,41.11
2023-04-27T15:09:22.728Z,40.78
2023-04-27T15:11:51.849Z,40.66
2023-04-27T15:14:19.616Z,40.33
2023-04-27T15:16:47.376Z,40.35
2023-04-27T15:19:15.426Z,41.43
2023-04-27T15:21:43.283Z,40.25
2023-04-27T15:24:14.224Z,41.15
2023-04-27T15:26:42.472Z,40.48
2023-04-27T15:29:13.697Z,40.29
2023-04-27T15:31:41.768Z,40.92
2023-04-27T15:34:09.505Z,41.54
2023-04-27T15:36:37.337Z,42.13
2023-04-27T15:39:06.330Z,43.13
2023-04-27T15:41:34.946Z,42.40
2023-04-27T15:44:02.709Z,42.33
2023-04-27T15:46:34.128Z,40.48
2023-04-27T15:49:04.010Z,41.70
2023-04-27T15:51:32.328Z,41.62
2023-04-27T15:54:00.268Z,42.66
2023-04-27T15:56:30.500Z,40.73
2023-04-27T15:58:58.725Z,42.72
2023-04-27T16:01:26.592Z,41.47
2023-04-27T16:03:56.560Z,42.21
2023-04-27T16:06:30.353Z,42.11
2023-04-27T16:08:58.120Z,41.46
2023-04-27T16:11:25.800Z,42.00
2023-04-27T16:13:53.521Z,43.62
2023-04-27T16:16:21.346Z,42.79
2023-04-27T16:18:49.107Z,43.00
2023-04-27T16:21:18.151Z,44.06
2023-04-27T16:23:45.820Z,42.51
2023-04-27T16:26:13.549Z,45.00
2023-04-27T16:28:41.402Z,43.29
2023-04-27T16:31:09.408Z,44.60
2023-04-27T16:33:37.224Z,43.96
2023-04-27T16:36:05.500Z,43.24
2023-04-27T16:38:35.173Z,43.37
2023-04-27T16:41:06.838Z,43.38
2023-04-27T16:43:34.710Z,42.50
2023-04-27T16:46:02.556Z,43.53
2023-04-27T16:48:30.564Z,42.10
2023-04-27T16:50:58.618Z,43.24
2023-04-27T16:53:27.081Z,44.96
2023-04-27T16:55:56.172Z,46.39
2023-04-27T16:58:24.193Z,45.04
2023-04-27T17:00:51.928Z,45.96
2023-04-27T17:03:21.537Z,43.96
2023-04-27T17:05:49.355Z,44.15
2023-04-27T17:08:17.082Z,43.85
2023-04-27T17:10:45.507Z,45.37
2023-04-27T17:13:16.441Z,45.75
2023-04-27T17:15:44.250Z,45.39
2023-04-27T17:18:12.061Z,45.85
2023-04-27T17:20:42.158Z,45.29
2023-04-27T17:23:10.075Z,47.18
2023-04-27T17:25:37.842Z,46.38
2023-04-27T17:28:05.886Z,47.08
2023-04-27T17:30:34.925Z,46.22
2023-04-27T17:33:03.519Z,47.28
2023-04-27T17:35:31.646Z,48.17
2023-04-27T17:37:59.382Z,46.43
2023-04-27T17:40:27.273Z,49.37
2023-04-27T17:42:56.465Z,47.53
2023-04-27T17:45:26.347Z,49.15
2023-04-27T17:47:55.731Z,49.93
2023-04-27T17:50:23.516Z,51.30
2023-04-27T17:52:51.483Z,49.68
2023-04-27T17:55:19.393Z,50.24
2023-04-27T17:57:47.250Z,50.38
2023-04-27T18:00:18.065Z,50.56
2023-04-27T18:02:48.148Z,51.37
2023-04-27T18:05:17.535Z,50.52
2023-04-27T18:07:46.571Z,50.17
2023-04-27T18:10:15.003Z,51.62
2023-04-27T18:12:42.716Z,49.29
2023-04-27T18:15:11.391Z,51.34
2023-04-27T18:17:39.208Z,52.74
2023-04-27T18:20:10.160Z,51.05
2023-04-27T18:22:41.122Z,53.51
2023-04-27T18:25:10.670Z,53.96
2023-04-27T18:27:38.631Z,52.88
2023-04-27T18:30:08.764Z,55.05
2023-04-27T18:32:36.650Z,54.54
2023-04-27T18:35:05.621Z,52.96
2023-04-27T18:37:33.529Z,52.63
2023-04-27T18:40:02.763Z,52.36
2023-04-27T18:42:30.656Z,51.77
2023-04-27T18:45:00.773Z,53.12
2023-04-27T18:47:28.885Z,54.57
2023-04-27T18:49:56.599Z,52.80
2023-04-27T18:52:24.366Z,52.78
2023-04-27T18:54:52.081Z,51.02
2023-04-27T18:57:21.132Z,53.69
2023-04-27T18:59:48.937Z,52.67
2023-04-27T19:02:16.718Z,50.51
2023-04-27T19:04:52.879Z,51.63
2023-04-27T19:07:29.684Z,50.36
2023-04-27T19:09:57.414Z,52.52
2023-04-27T19:12:26.626Z,51.89
2023-04-27T19:14:54.434Z,51.19
2023-04-27T19:17:22.426Z,50.23
2023-04-27T19:19:50.393Z,51.40
2023-04-27T19:22:18.091Z,50.96
2023-04-27T19:24:45.875Z,52.22
2023-04-27T19:27:13.962Z,51.42
2023-04-27T19:29:54.210Z,52.14
2023-04-27T19:32:25.204Z,51.15
2023-04-27T19:34:53.289Z,52.40
2023-04-27T19:37:21.664Z,53.88
2023-04-27T19:39:49.521Z,55.39
2023-04-27T19:42:17.445Z,56.98
2023-04-27T19:44:45.189Z,54.69
2023-04-27T19:47:14.370Z,55.61
2023-04-27T19:49:42.115Z,54.94
2023-04-27T19:52:09.896Z,54.04
2023-04-27T19:54:38.322Z,54.14
2023-04-27T19:57:06.271Z,56.60
2023-04-27T19:59:34.089Z,56.84
2023-04-27T20:02:01.942Z,57.50
2023-04-27T20:04:31.279Z,55.81
2023-04-27T20:07:01.058Z,55.29
2023-04-27T20:09:28.828Z,57.08
2023-04-27T20:11:56.625Z,56.29
2023-04-27T20:14:24.884Z,57.20
2023-04-27T20:16:52.781Z,54.30
2023-04-27T20:19:22.640Z,54.78
2023-04-27T20:21:51.816Z,56.18
2023-04-27T20:24:19.546Z,57.38
2023-04-27T20:26:47.450Z,58.57
2023-04-27T20:29:15.182Z,57.33
2023-04-27T20:31:42.991Z,56.74
2023-04-27T20:34:11.241Z,56.95
2023-04-27T20:36:38.995Z,60.21
2023-04-27T20:39:08.980Z,58.92
2023-04-27T20:41:38.514Z,58.91
2023-04-27T20:44:06.319Z,58.26
2023-04-27T20:46:34.134Z,57.36
2023-04-27T20:49:01.875Z,60.06
2023-04-27T20:51:29.768Z,59.83
2023-04-27T20:53:57.625Z,59.81
2023-04-27T20:56:26.939Z,59.24
2023-04-27T20:58:54.646Z,61.16
2023-04-27T21:01:22.402Z,63.10
2023-04-27T21:03:50.326Z,65.13
2023-04-27T21:06:18.186Z,68.73
2023-04-27T21:08:45.986Z,69.47
2023-04-27T21:11:15.097Z,66.25
2023-04-27T21:13:45.713Z,68.66
2023-04-27T21:16:13.557Z,68.45
2023-04-27T21:18:41.289Z,69.96
2023-04-27T21:21:09.046Z,72.53
2023-04-27T21:23:36.727Z,71.27
2023-04-27T21:26:04.570Z,69.56
2023-04-27T21:28:32.530Z,71.40
2023-04-27T21:31:01.720Z,71.77
2023-04-27T21:33:31.659Z,68.05
2023-04-27T21:35:59.582Z,70.72
2023-04-27T21:38:27.355Z,69.09
2023-04-27T21:40:55.076Z,69.80
2023-04-27T21:43:22.895Z,68.42
2023-04-27T21:45:50.700Z,70.53
2023-04-27T21:48:19.775Z,70.08
2023-04-27T21:50:47.694Z,70.51
2023-04-27T21:53:15.810Z,70.03
2023-04-27T21:55:43.685Z,71.08
2023-04-27T21:58:11.595Z,71.71
2023-04-27T22:00:39.649Z,66.15
2023-04-27T22:03:07.856Z,70.73
2023-04-27T22:05:37.649Z,72.91
2023-04-27T22:08:05.501Z,71.04
2023-04-27T22:10:33.227Z,72.20
2023-04-27T22:13:08.200Z,72.72
2023-04-27T22:15:45.853Z,72.56
2023-04-27T22:18:14.318Z,72.47
2023-04-27T22:20:44.370Z,74.23
2023-04-27T22:23:12.114Z,76.37
2023-04-27T22:25:42.533Z,74.29
2023-04-27T22:28:10.330Z,74.91
2023-04-27T22:30:40.013Z,75.87
2023-04-27T22:33:08.073Z,72.05
2023-04-27T22:35:36.985Z,73.48
2023-04-27T22:38:06.996Z,76.59
2023-04-27T22:40:34.849Z,75.89
2023-04-27T22:43:02.599Z,73.58
2023-04-27T22:45:30.534Z,73.14
2023-04-27T22:47:58.614Z,73.11
2023-04-27T22:50:26.652Z,69.58
2023-04-27T22:52:54.403Z,70.59
2023-04-27T22:55:23.655Z,73.03
2023-04-27T22:57:53.626Z,70.34
2023-04-27T23:00:21.743Z,65.70
2023-04-27T23:02:49.686Z,67.39
2023-04-27T23:05:17.623Z,66.24
2023-04-27T23:07:46.316Z,68.59
2023-04-27T23:10:15.224Z,69.77
2023-04-27T23:12:44.379Z,67.93
2023-04-27T23:15:12.660Z,72.08
2023-04-27T23:17:40.532Z,70.91
2023-04-27T23:20:20.376Z,67.38
2023-04-27T23:22:54.917Z,69.27
2023-04-27T23:25:22.707Z,70.23
2023-04-27T23:27:52.698Z,72.03
2023-04-27T23:30:21.380Z,71.99
2023-04-27T23:32:49.254Z,71.62
2023-04-27T23:35:17.150Z,72.18
2023-04-27T23:37:45.022Z,70.64
2023-04-27T23:40:14.058Z,70.38
2023-04-27T23:42:41.945Z,72.46
2023-04-27T23:45:12.267Z,74.17
2023-04-27T23:47:40.116Z,75.42
2023-04-27T23:50:09.030Z,75.39
2023-04-27T23:52:37.091Z,76.49
2023-04-27T23:55:05.518Z,77.42
2023-04-27T23:57:33.303Z,77.93
